createdAt,value
2019-04-11T00:00:53.271Z,18.00
2019-04-11T00:03:19.511Z,10.17
2019-04-11T00:05:45.848Z,13.50
2019-04-11T00:08:12.138Z,15.40
2019-04-11T00:10:39.492Z,13.97
2019-04-11T00:13:17.384Z,13.83
2019-04-11T00:15:33.569Z,12.73
2019-04-11T00:18:00.584Z,14.83
2019-04-11T00:20:27.023Z,14.20
2019-04-11T00:22:53.962Z,14.07
2019-04-11T00:25:20.220Z,11.43
2019-04-11T00:27:46.221Z,13.93
2019-04-11T00:30:12.632Z,14.43
2019-04-11T00:32:38.620Z,14.63
2019-04-11T00:35:04.632Z,12.37
2019-04-11T00:37:30.621Z,12.87
2019-04-11T00:39:56.632Z,14.30
2019-04-11T00:42:22.882Z,12.03
2019-04-11T00:44:49.543Z,11.10
2019-04-11T00:47:16.987Z,11.97
2019-04-11T00:49:43.486Z,11.50
2019-04-11T00:52:09.477Z,12.47
2019-04-11T00:54:35.484Z,12.40
2019-04-11T00:57:01.884Z,12.60
2019-04-11T00:59:27.900Z,12.57
2019-04-11T01:01:54.092Z,11.07
2019-04-11T01:04:20.096Z,14.00
2019-04-11T01:06:46.710Z,13.87
2019-04-11T01:09:12.782Z,12.97
2019-04-11T01:11:39.073Z,11.70
2019-04-11T01:14:05.677Z,12.33
2019-04-11T01:16:36.772Z,13.53
2019-04-11T01:19:04.535Z,14.03
2019-04-11T01:21:31.036Z,12.90
2019-04-11T01:23:57.531Z,14.93
2019-04-11T01:26:23.890Z,11.83
2019-04-11T01:28:51.975Z,11.87
2019-04-11T01:31:19.771Z,18.50
2019-04-11T01:33:46.333Z,13.90
2019-04-11T01:36:13.699Z,17.97
2019-04-11T01:38:41.725Z,17.00
2019-04-11T01:41:07.700Z,10.53
2019-04-11T01:43:33.705Z,12.50
2019-04-11T01:46:00.055Z,11.43
2019-04-11T01:48:45.840Z,13.13
2019-04-11T01:51:12.069Z,14.23
2019-04-11T01:53:40.540Z,10.73
2019-04-11T01:56:07.194Z,13.50
2019-04-11T01:58:33.347Z,13.10
2019-04-11T02:01:01.242Z,11.60
2019-04-11T02:03:29.159Z,9.80
2019-04-11T02:05:55.627Z,12.73
2019-04-11T02:08:21.628Z,13.77
2019-04-11T02:10:49.098Z,16.73
2019-04-11T02:13:15.404Z,10.57
2019-04-11T02:15:41.499Z,11.47
2019-04-11T02:18:07.637Z,11.57
2019-04-11T02:20:34.113Z,14.73
2019-04-11T02:23:02.519Z,12.23
2019-04-11T02:25:30.875Z,13.17
2019-04-11T02:27:58.778Z,11.53
2019-04-11T02:30:25.529Z,9.10
2019-04-11T02:32:53.484Z,9.67
2019-04-11T02:35:22.159Z,10.43
2019-04-11T02:37:50.467Z,11.70
2019-04-11T02:40:17.501Z,8.90
2019-04-11T02:42:45.490Z,10.83
2019-04-11T02:45:26.338Z,12.67
2019-04-11T02:47:43.914Z,10.87
2019-04-11T02:50:10.450Z,10.60
2019-04-11T02:52:37.811Z,7.23
2019-04-11T02:55:06.218Z,11.33
2019-04-11T02:57:34.417Z,9.33
2019-04-11T03:00:02.056Z,10.37
2019-04-11T03:02:28.469Z,14.07
2019-04-11T03:04:55.612Z,13.00
2019-04-11T03:07:22.822Z,9.67
2019-04-11T03:09:51.062Z,8.47
2019-04-11T03:12:19.106Z,7.57
2019-04-11T03:15:04.459Z,9.17
2019-04-11T03:17:20.701Z,11.77
2019-04-11T03:19:58.239Z,14.10
2019-04-11T03:22:10.499Z,11.10
2019-04-11T03:24:36.502Z,10.30
2019-04-11T03:27:04.852Z,15.07
2019-04-11T03:29:33.791Z,7.97
2019-04-11T03:32:40.099Z,10.60
2019-04-11T03:39:43.910Z,8.73
2019-04-11T03:42:11.127Z,8.83
2019-04-11T03:44:25.414Z,12.10
2019-04-11T03:47:06.952Z,10.70
2019-04-11T03:49:27.960Z,10.60
2019-04-11T03:51:47.873Z,10.13
2019-04-11T03:54:15.594Z,10.10
2019-04-11T03:56:43.299Z,11.60
2019-04-11T03:59:12.391Z,8.93
2019-04-11T04:01:39.828Z,13.53
2019-04-11T04:04:08.916Z,8.43
2019-04-11T04:06:37.200Z,8.37
2019-04-11T04:09:06.603Z,9.33
2019-04-11T04:11:34.683Z,14.67
2019-04-11T04:14:04.136Z,11.87
2019-04-11T04:16:52.469Z,10.43
2019-04-11T04:19:27.057Z,9.47
2019-04-11T04:22:07.157Z,11.27
2019-04-11T04:24:39.043Z,8.63
2019-04-11T04:27:04.653Z,11.47
2019-04-11T04:29:32.788Z,11.73
2019-04-11T04:32:00.091Z,8.57
2019-04-11T04:34:28.160Z,10.00
2019-04-11T04:36:55.714Z,8.37
2019-04-11T04:39:22.917Z,8.90
2019-04-11T04:41:58.860Z,9.43
2019-04-11T04:44:22.178Z,7.50
2019-04-11T04:46:58.655Z,7.87
2019-04-11T04:49:15.354Z,10.03
2019-04-11T04:51:41.629Z,8.53
2019-04-11T04:54:08.226Z,9.03
2019-04-11T04:56:35.588Z,7.33
2019-04-11T04:59:04.704Z,11.00
2019-04-11T05:01:31.563Z,6.60
2019-04-11T05:03:58.300Z,17.33
2019-04-11T05:06:26.071Z,8.37
2019-04-11T05:08:52.839Z,8.77
2019-04-11T05:11:18.824Z,10.07
2019-04-11T05:13:48.635Z,7.77
2019-04-11T05:16:17.703Z,8.37
2019-04-11T05:18:41.887Z,6.73
2019-04-11T05:21:08.654Z,9.03
2019-04-11T05:23:34.768Z,7.33
2019-04-11T05:26:01.617Z,9.33
2019-04-11T05:28:27.809Z,9.60
2019-04-11T05:30:53.861Z,6.50
2019-04-11T05:33:19.885Z,10.60
2019-04-11T05:35:48.021Z,9.50
2019-04-11T05:38:14.167Z,10.33
2019-04-11T05:40:40.552Z,8.77
2019-04-11T05:43:07.871Z,8.53
2019-04-11T05:45:33.996Z,10.50
2019-04-11T05:48:01.211Z,7.83
2019-04-11T05:50:28.784Z,9.77
2019-04-11T05:52:56.630Z,7.17
2019-04-11T05:55:23.856Z,9.07
2019-04-11T05:57:50.262Z,13.50
2019-04-11T06:00:19.399Z,10.20
2019-04-11T06:02:49.140Z,8.70
2019-04-11T06:05:23.793Z,8.20
2019-04-11T06:07:50.753Z,10.00
2019-04-11T06:10:22.383Z,10.93
2019-04-11T06:13:08.316Z,6.97
2019-04-11T06:15:43.974Z,9.20
2019-04-11T06:18:24.162Z,11.57
2019-04-11T06:20:43.048Z,8.33
2019-04-11T06:23:11.496Z,9.50
2019-04-11T06:25:46.784Z,7.17
2019-04-11T06:28:15.043Z,11.03
2019-04-11T06:30:55.062Z,10.27
2019-04-11T06:33:22.975Z,9.93
2019-04-11T06:36:05.571Z,15.57
2019-04-11T06:38:51.078Z,11.63
2019-04-11T06:41:32.682Z,9.70
2019-04-11T06:44:17.139Z,12.07
2019-04-11T06:46:52.331Z,8.30
2019-04-11T06:49:18.312Z,8.80
2019-04-11T06:51:52.560Z,9.27
2019-04-11T06:54:25.242Z,10.33
2019-04-11T06:56:52.336Z,7.43
2019-04-11T06:59:32.565Z,10.63
2019-04-11T07:02:09.700Z,9.30
2019-04-11T07:04:30.599Z,11.50
2019-04-11T07:06:58.596Z,11.37
2019-04-11T07:09:29.259Z,7.40
2019-04-11T07:11:57.406Z,7.43
2019-04-11T07:14:31.331Z,8.27
2019-04-11T07:17:15.647Z,7.07
2019-04-11T07:19:53.613Z,8.23
2019-04-11T07:22:38.703Z,11.33
2019-04-11T07:25:22.420Z,7.20
2019-04-11T07:28:07.899Z,7.93
2019-04-11T07:30:37.403Z,7.07
2019-04-11T07:33:22.367Z,6.07
2019-04-11T07:36:08.280Z,5.70
2019-04-11T07:38:36.531Z,8.33
2019-04-11T07:41:05.198Z,6.47
2019-04-11T07:43:33.532Z,12.37
2019-04-11T07:46:02.729Z,7.60
2019-04-11T07:48:30.875Z,6.77
2019-04-11T07:50:59.741Z,8.40
2019-04-11T07:53:26.616Z,5.40
2019-04-11T07:55:53.642Z,7.17
2019-04-11T07:58:21.761Z,5.83
2019-04-11T08:00:52.910Z,5.57
2019-04-11T08:03:21.391Z,6.57
2019-04-11T08:05:58.733Z,7.23
2019-04-11T08:08:30.298Z,5.33
2019-04-11T08:10:58.297Z,7.37
2019-04-11T08:13:28.714Z,4.27
2019-04-11T08:16:02.479Z,11.27
2019-04-11T08:18:30.677Z,7.10
2019-04-11T08:21:15.094Z,9.27
2019-04-11T08:23:43.555Z,5.43
2019-04-11T08:26:20.240Z,6.37
2019-04-11T08:28:50.256Z,5.33
2019-04-11T08:31:31.353Z,5.60
2019-04-11T08:33:58.987Z,5.20
2019-04-11T08:36:29.803Z,7.20
2019-04-11T08:38:56.445Z,5.17
2019-04-11T08:41:25.389Z,8.50
2019-04-11T08:43:51.398Z,4.87
2019-04-11T08:46:28.961Z,5.57
2019-04-11T08:49:13.878Z,5.67
2019-04-11T08:51:41.150Z,7.20
2019-04-11T08:54:17.963Z,5.40
2019-04-11T08:56:45.343Z,5.33
2019-04-11T08:59:21.526Z,5.20
2019-04-11T09:01:48.515Z,7.67
2019-04-11T09:04:19.348Z,6.97
2019-04-11T09:06:45.360Z,6.67
2019-04-11T09:09:13.440Z,7.97
2019-04-11T09:11:42.321Z,6.97
2019-04-11T09:14:28.328Z,5.97
2019-04-11T09:16:56.778Z,9.27
2019-04-11T09:19:36.438Z,5.87
2019-04-11T09:22:10.992Z,4.77
2019-04-11T09:24:43.098Z,6.13
2019-04-11T09:27:24.791Z,7.40
2019-04-11T09:29:56.584Z,7.83
2019-04-11T09:32:30.344Z,4.70
2019-04-11T09:34:58.242Z,7.27
2019-04-11T09:37:25.349Z,6.00
2019-04-11T09:39:59.352Z,7.73
2019-04-11T09:42:28.374Z,7.60
2019-04-11T09:44:59.370Z,6.20
2019-04-11T09:47:30.451Z,6.53
2019-04-11T09:50:04.685Z,9.30
2019-04-11T09:52:38.942Z,6.07
2019-04-11T09:55:25.450Z,6.43
2019-04-11T09:57:58.192Z,6.87
2019-04-11T10:00:34.799Z,7.20
2019-04-11T10:03:02.922Z,6.73
2019-04-11T10:05:40.667Z,7.83
2019-04-11T10:08:12.760Z,6.87
2019-04-11T10:10:46.697Z,8.60
2019-04-11T10:13:18.473Z,7.43
2019-04-11T10:15:47.294Z,8.77
2019-04-11T10:18:34.004Z,6.67
2019-04-11T10:20:59.220Z,7.00
2019-04-11T10:23:36.706Z,11.27
2019-04-11T10:26:03.712Z,5.27
2019-04-11T10:28:49.501Z,6.87
2019-04-11T10:31:15.676Z,8.07
2019-04-11T10:34:01.441Z,6.97
2019-04-11T10:36:31.424Z,5.53
2019-04-11T10:39:11.536Z,7.00
2019-04-11T10:41:42.088Z,6.57
2019-04-11T10:44:09.753Z,10.13
2019-04-11T10:46:52.844Z,6.03
2019-04-11T10:49:36.577Z,5.83
2019-04-11T10:52:10.326Z,5.03
2019-04-11T10:54:36.735Z,4.83
2019-04-11T10:57:13.912Z,8.97
2019-04-11T10:59:44.947Z,8.10
2019-04-11T11:02:16.055Z,6.67
2019-04-11T11:04:45.028Z,4.43
2019-04-11T11:07:13.102Z,7.00
2019-04-11T11:09:44.340Z,6.13
2019-04-11T11:12:12.791Z,6.63
2019-04-11T11:14:58.718Z,5.70
2019-04-11T11:17:49.330Z,7.60
2019-04-11T11:20:22.244Z,6.93
2019-04-11T11:22:54.222Z,6.13
2019-04-11T11:25:22.470Z,4.93
2019-04-11T11:27:48.757Z,5.00
2019-04-11T11:30:33.573Z,5.27
2019-04-11T11:33:00.119Z,7.00
2019-04-11T11:35:32.046Z,5.33
2019-04-11T11:37:57.532Z,7.83
2019-04-11T11:40:43.974Z,5.83
2019-04-11T11:43:12.009Z,7.50
2019-04-11T11:45:56.887Z,4.77
2019-04-11T11:48:26.074Z,6.53
2019-04-11T11:50:52.866Z,10.63
2019-04-11T11:53:25.883Z,5.50
2019-04-11T11:55:52.283Z,5.07
2019-04-11T11:58:26.089Z,5.00
2019-04-11T12:00:56.902Z,7.67
2019-04-11T12:03:40.877Z,5.83
2019-04-11T12:06:09.544Z,11.20
2019-04-11T12:08:39.115Z,7.17
2019-04-11T12:11:08.105Z,6.10
2019-04-11T12:13:38.713Z,6.03
2019-04-11T12:16:06.092Z,6.40
2019-04-11T12:18:35.147Z,6.20
2019-04-11T12:21:06.126Z,10.33
2019-04-11T12:23:58.022Z,9.30
2019-04-11T12:26:20.314Z,4.93
2019-04-11T12:28:52.181Z,7.37
2019-04-11T12:31:23.804Z,5.33
2019-04-11T12:34:10.382Z,5.83
2019-04-11T12:36:43.084Z,6.53
2019-04-11T12:39:25.391Z,5.83
2019-04-11T12:42:05.469Z,4.77
2019-04-11T12:44:49.968Z,4.83
2019-04-11T12:47:18.146Z,4.97
2019-04-11T12:49:53.205Z,7.67
2019-04-11T12:52:24.527Z,4.73
2019-04-11T12:54:51.816Z,5.90
2019-04-11T12:57:36.696Z,5.87
2019-04-11T13:00:18.033Z,4.77
2019-04-11T13:03:01.564Z,4.53
2019-04-11T13:05:29.430Z,4.50
2019-04-11T13:08:02.880Z,4.20
2019-04-11T13:10:29.071Z,4.83
2019-04-11T13:12:57.231Z,7.93
2019-04-11T13:15:27.934Z,14.90
2019-04-11T13:18:01.855Z,5.10
2019-04-11T13:20:41.826Z,5.50
2019-04-11T13:23:10.006Z,6.07
2019-04-11T13:26:07.872Z,5.73
2019-04-11T13:28:33.891Z,4.53
2019-04-11T13:31:18.509Z,3.30
2019-04-11T13:33:45.319Z,5.20
2019-04-11T13:36:30.044Z,7.20
2019-04-11T13:38:56.411Z,4.70
2019-04-11T13:41:39.507Z,4.80
2019-04-11T13:44:09.721Z,5.97
2019-04-11T13:46:37.508Z,6.17
2019-04-11T13:49:11.519Z,7.03
2019-04-11T13:51:48.304Z,6.60
2019-04-11T13:54:28.223Z,4.60
2019-04-11T13:57:04.865Z,5.20
2019-04-11T13:59:35.886Z,5.37
2019-04-11T14:02:15.504Z,5.23
2019-04-11T14:04:50.257Z,5.70
2019-04-11T14:07:17.858Z,6.40
2019-04-11T14:09:45.774Z,6.20
2019-04-11T14:12:12.265Z,5.63
2019-04-11T14:14:38.259Z,5.30
2019-04-11T14:17:17.859Z,8.70
2019-04-11T14:19:54.468Z,7.50
2019-04-11T14:22:27.767Z,4.50
2019-04-11T14:25:13.510Z,12.43
2019-04-11T14:27:38.348Z,6.10
2019-04-11T14:30:20.527Z,6.93
2019-04-11T14:32:51.776Z,4.50
2019-04-11T14:35:38.974Z,5.70
2019-04-11T14:38:06.870Z,11.63
2019-04-11T14:40:35.031Z,4.30
2019-04-11T14:43:20.885Z,7.03
2019-04-11T14:45:51.859Z,5.87
2019-04-11T14:48:19.755Z,6.20
2019-04-11T14:50:53.753Z,6.90
2019-04-11T14:53:30.233Z,7.07
2019-04-11T14:56:00.654Z,4.97
2019-04-11T14:58:45.515Z,7.20
2019-04-11T15:01:13.418Z,8.57
2019-04-11T15:03:43.466Z,5.93
2019-04-11T15:06:19.856Z,6.37
2019-04-11T15:08:48.145Z,5.70
2019-04-11T15:11:19.140Z,6.73
2019-04-11T15:13:48.138Z,9.27
2019-04-11T15:16:28.739Z,5.47
2019-04-11T15:18:56.693Z,6.77
2019-04-11T15:21:24.894Z,6.50
2019-04-11T15:23:50.908Z,5.53
2019-04-11T15:26:18.781Z,7.00
2019-04-11T15:28:50.031Z,5.60
2019-04-11T15:31:20.895Z,7.07
2019-04-11T15:33:49.037Z,8.10
2019-04-11T15:36:22.843Z,5.07
2019-04-11T15:39:08.010Z,6.67
2019-04-11T15:41:34.444Z,8.80
2019-04-11T15:44:19.427Z,6.07
2019-04-11T15:46:47.588Z,5.77
2019-04-11T15:49:31.301Z,6.40
2019-04-11T15:51:57.124Z,6.53
2019-04-11T15:54:25.027Z,7.27
2019-04-11T15:56:56.056Z,5.57
2019-04-11T15:59:39.398Z,11.50
2019-04-11T16:02:24.083Z,5.67
2019-04-11T16:05:01.941Z,6.07
2019-04-11T16:07:47.654Z,7.97
2019-04-11T16:10:14.660Z,5.67
2019-04-11T16:12:59.764Z,7.53
2019-04-11T16:15:30.507Z,7.70
2019-04-11T16:18:03.090Z,5.47
2019-04-11T16:20:29.095Z,5.57
2019-04-11T16:23:14.876Z,7.27
2019-04-11T16:25:42.082Z,6.60
2019-04-11T16:28:21.811Z,5.97
2019-04-11T16:30:49.719Z,7.20
2019-04-11T16:33:17.615Z,9.20
2019-04-11T16:35:56.885Z,12.77
2019-04-11T16:38:30.308Z,6.57
2019-04-11T16:41:15.014Z,5.17
2019-04-11T16:43:42.915Z,5.57
2019-04-11T16:46:19.521Z,8.73
2019-04-11T16:48:45.731Z,4.63
2019-04-11T16:51:12.041Z,13.60
2019-04-11T16:53:38.035Z,7.50
2019-04-11T16:56:04.031Z,5.83
2019-04-11T16:58:30.031Z,7.57
2019-04-11T17:00:56.039Z,5.40
2019-04-11T17:03:24.777Z,4.43
2019-04-11T17:05:55.573Z,4.40
2019-04-11T17:08:25.985Z,9.20
2019-04-11T17:11:09.190Z,5.93
2019-04-11T17:13:35.519Z,4.93
2019-04-11T17:16:02.820Z,4.47
2019-04-11T17:18:29.102Z,8.30
2019-04-11T17:20:55.105Z,4.87
2019-04-11T17:23:21.126Z,6.00
2019-04-11T17:25:52.366Z,6.40
2019-04-11T17:28:15.243Z,4.10
2019-04-11T17:30:41.242Z,5.23
2019-04-11T17:33:07.238Z,5.43
2019-04-11T17:35:33.531Z,6.63
2019-04-11T17:38:01.134Z,5.77
2019-04-11T17:40:27.660Z,5.40
2019-04-11T17:42:53.962Z,4.53
2019-04-11T17:45:20.056Z,7.60
2019-04-11T17:47:46.054Z,6.53
2019-04-11T17:50:12.460Z,7.93
2019-04-11T17:52:38.521Z,6.60
2019-04-11T17:55:05.210Z,11.10
2019-04-11T17:57:31.282Z,6.13
2019-04-11T17:59:59.113Z,9.43
2019-04-11T18:02:25.189Z,5.73
2019-04-11T18:04:51.176Z,7.23
2019-04-11T18:07:17.768Z,4.93
2019-04-11T18:09:43.904Z,6.50
2019-04-11T18:12:09.920Z,8.43
2019-04-11T18:14:35.942Z,6.67
2019-04-11T18:17:04.539Z,4.30
2019-04-11T18:19:29.912Z,6.20
2019-04-11T18:22:07.039Z,7.37
2019-04-11T18:24:23.809Z,5.30
2019-04-11T18:26:51.936Z,5.53
2019-04-11T18:29:18.239Z,5.87
2019-04-11T18:31:44.262Z,8.77
2019-04-11T18:34:10.500Z,7.83
2019-04-11T18:36:37.377Z,7.73
2019-04-11T18:39:05.915Z,6.30
2019-04-11T18:41:32.307Z,7.37
2019-04-11T18:43:58.354Z,6.57
2019-04-11T18:46:24.307Z,9.33
2019-04-11T18:48:50.327Z,6.10
2019-04-11T18:51:16.425Z,7.40
2019-04-11T18:53:42.708Z,21.73
2019-04-11T18:56:08.735Z,7.03
2019-04-11T18:58:35.065Z,9.47
2019-04-11T19:01:01.401Z,6.10
2019-04-11T19:03:36.122Z,6.93
2019-04-11T19:05:55.570Z,6.13
2019-04-11T19:08:21.630Z,5.50
2019-04-11T19:10:47.706Z,6.47
2019-04-11T19:13:16.639Z,6.50
2019-04-11T19:15:45.502Z,7.87
2019-04-11T19:18:09.792Z,5.67
2019-04-11T19:20:35.827Z,6.60
2019-04-11T19:23:01.824Z,7.07
2019-04-11T19:25:27.865Z,8.57
2019-04-11T19:27:54.390Z,6.70
2019-04-11T19:30:21.389Z,5.50
2019-04-11T19:32:47.387Z,4.40
2019-04-11T19:35:13.408Z,4.73
2019-04-11T19:37:41.721Z,8.77
2019-04-11T19:40:09.965Z,8.17
2019-04-11T19:42:35.867Z,5.83
2019-04-11T19:45:03.992Z,7.03
2019-04-11T19:47:29.982Z,5.87
2019-04-11T19:49:58.555Z,9.33
2019-04-11T19:52:24.022Z,9.53
2019-04-11T19:54:50.013Z,6.03
2019-04-11T19:57:16.000Z,9.50
2019-04-11T19:59:41.995Z,4.70
2019-04-11T20:02:07.994Z,8.67
2019-04-11T20:04:34.289Z,10.27
2019-04-11T20:07:00.610Z,7.33
2019-04-11T20:09:26.607Z,3.93
2019-04-11T20:11:52.615Z,6.07
2019-04-11T20:14:18.601Z,4.97
2019-04-11T20:16:48.381Z,4.87
2019-04-11T20:19:12.789Z,12.33
2019-04-11T20:21:39.053Z,6.43
2019-04-11T20:24:05.453Z,4.40
2019-04-11T20:26:31.452Z,6.77
2019-04-11T20:28:57.712Z,5.80
2019-04-11T20:31:23.936Z,3.97
2019-04-11T20:33:49.943Z,3.60
2019-04-11T20:36:15.931Z,5.10
2019-04-11T20:38:44.722Z,6.57
2019-04-11T20:41:10.081Z,5.27
2019-04-11T20:43:36.420Z,7.07
2019-04-11T20:46:03.162Z,7.60
2019-04-11T20:48:30.951Z,3.90
2019-04-11T20:50:57.253Z,4.77
2019-04-11T20:53:23.259Z,4.77
2019-04-11T20:55:49.360Z,4.90
2019-04-11T20:58:26.531Z,3.70
2019-04-11T21:00:50.258Z,4.57
2019-04-11T21:03:11.476Z,4.20
2019-04-11T21:05:37.703Z,5.07
2019-04-11T21:08:03.761Z,5.93
2019-04-11T21:10:31.955Z,4.80
2019-04-11T21:12:57.939Z,6.37
2019-04-11T21:15:23.952Z,3.50
2019-04-11T21:17:49.975Z,4.27
2019-04-11T21:20:16.209Z,6.07
2019-04-11T21:22:42.199Z,6.03
2019-04-11T21:25:08.206Z,4.37
2019-04-11T21:27:34.475Z,5.10
2019-04-11T21:30:01.215Z,5.70
2019-04-11T21:32:29.023Z,12.57
2019-04-11T21:34:55.127Z,4.77
2019-04-11T21:37:21.120Z,4.77
2019-04-11T21:39:47.112Z,7.47
2019-04-11T21:42:13.119Z,4.23
2019-04-11T21:44:39.112Z,6.57
2019-04-11T21:47:07.309Z,3.80
2019-04-11T21:49:36.771Z,3.90
2019-04-11T21:52:03.072Z,4.10
2019-04-11T21:54:29.143Z,4.60
2019-04-11T21:56:55.482Z,5.40
2019-04-11T21:59:21.563Z,4.63
2019-04-11T22:01:47.559Z,3.67
2019-04-11T22:04:13.785Z,5.47
2019-04-11T22:06:39.912Z,5.90
2019-04-11T22:09:06.593Z,7.80
2019-04-11T22:11:32.622Z,3.70
2019-04-11T22:13:58.642Z,4.17
2019-04-11T22:16:24.648Z,3.83
2019-04-11T22:18:50.935Z,7.57
2019-04-11T22:21:16.933Z,4.67
2019-04-11T22:23:48.618Z,5.30
2019-04-11T22:28:42.791Z,4.43
2019-04-11T22:31:18.977Z,9.13
2019-04-11T22:33:46.888Z,3.13
2019-04-11T22:36:12.913Z,3.07
2019-04-11T22:38:39.019Z,3.63
2019-04-11T22:41:05.031Z,5.57
2019-04-11T22:43:33.131Z,4.73
2019-04-11T22:45:59.131Z,3.33
2019-04-11T22:48:26.636Z,5.03
2019-04-11T22:50:52.661Z,4.13
2019-04-11T22:53:18.670Z,6.07
2019-04-11T22:55:44.679Z,5.67
2019-04-11T22:58:14.010Z,5.93
2019-04-11T23:00:38.871Z,4.43
2019-04-11T23:03:21.613Z,7.53
2019-04-11T23:05:47.613Z,7.97
2019-04-11T23:08:13.617Z,5.27
2019-04-11T23:10:39.763Z,4.57
2019-04-11T23:13:05.814Z,4.13
2019-04-11T23:15:31.823Z,6.53
2019-04-11T23:17:57.831Z,3.13
2019-04-11T23:20:23.827Z,5.00
2019-04-11T23:22:49.823Z,4.17
2019-04-11T23:25:15.830Z,4.67
2019-04-11T23:27:41.835Z,4.47
2019-04-11T23:30:08.844Z,4.07
2019-04-11T23:32:34.847Z,5.03
2019-04-11T23:35:00.835Z,4.40
2019-04-11T23:37:26.853Z,5.10
2019-04-11T23:39:52.853Z,4.33
2019-04-11T23:42:19.735Z,4.77
2019-04-11T23:48:09.104Z,5.20
2019-04-11T23:50:35.099Z,3.67
2019-04-11T23:53:01.108Z,5.07
2019-04-11T23:55:30.027Z,5.30
2019-04-11T23:57:55.292Z,3.97
